sensor_id;sensor_type;location;lat;lon;timestamp;pressure;altitude;pressure_sealevel;temperature;humidity
57900;BME280;60605;53.716;19.940;2022-11-25T00:03:02;100352.71;;;-0.60;100.00
57900;BME280;60605;53.716;19.940;2022-11-25T00:08:06;100350.74;;;-0.59;100.00
57900;BME280;60605;53.716;19.940;2022-11-25T00:13:09;100347.91;;;-0.59;100.00
57900;BME280;60605;53.716;19.940;2022-11-25T00:18:12;100352.01;;;-0.57;100.00
57900;BME280;60605;53.716;19.940;2022-11-25T00:23:16;100356.34;;;-0.53;100.00
57900;BME280;60605;53.716;19.940;2022-11-25T00:28:19;100354.44;;;-0.50;100.00
57900;BME280;60605;53.716;19.940;2022-11-25T00:33:22;100356.19;;;-0.47;100.00
57900;BME280;60605;53.716;19.940;2022-11-25T00:38:26;100362.52;;;-0.44;100.00
57900;BME280;60605;53.716;19.940;2022-11-25T00:43:29;100360.54;;;-0.43;100.00
57900;BME280;60605;53.716;19.940;2022-11-25T00:48:51;100361.15;;;-0.41;100.00
57900;BME280;60605;53.716;19.940;2022-11-25T00:53:54;100358.14;;;-0.41;100.00
57900;BME280;60605;53.716;19.940;2022-11-25T00:59:02;100356.92;;;-0.41;100.00
57900;BME280;60605;53.716;19.940;2022-11-25T01:04:06;100357.81;;;-0.41;100.00
57900;BME280;60605;53.716;19.940;2022-11-25T01:09:10;100359.80;;;-0.42;100.00
57900;BME280;60605;53.716;19.940;2022-11-25T01:14:14;100360.02;;;-0.43;100.00
57900;BME280;60605;53.716;19.940;2022-11-25T01:19:18;100360.05;;;-0.43;100.00
57900;BME280;60605;53.716;19.940;2022-11-25T01:24:21;100362.09;;;-0.42;100.00
57900;BME280;60605;53.716;19.940;2022-11-25T01:29:26;100362.90;;;-0.44;100.00
57900;BME280;60605;53.716;19.940;2022-11-25T01:34:29;100369.44;;;-0.48;100.00
57900;BME280;60605;53.716;19.940;2022-11-25T01:39:34;100375.09;;;-0.52;100.00
57900;BME280;60605;53.716;19.940;2022-11-25T01:44:38;100377.65;;;-0.58;100.00
57900;BME280;60605;53.716;19.940;2022-11-25T01:49:54;100382.41;;;-0.61;100.00
57900;BME280;60605;53.716;19.940;2022-11-25T02:00:04;100380.00;;;-0.62;100.00
57900;BME280;60605;53.716;19.940;2022-11-25T02:05:12;100386.02;;;-0.67;100.00
57900;BME280;60605;53.716;19.940;2022-11-25T02:10:25;100393.88;;;-0.69;100.00
57900;BME280;60605;53.716;19.940;2022-11-25T02:15:30;100395.73;;;-0.71;100.00
57900;BME280;60605;53.716;19.940;2022-11-25T02:20:37;100398.35;;;-0.71;100.00
57900;BME280;60605;53.716;19.940;2022-11-25T02:25:42;100400.36;;;-0.72;100.00
57900;BME280;60605;53.716;19.940;2022-11-25T02:30:47;100404.16;;;-0.74;100.00
57900;BME280;60605;53.716;19.940;2022-11-25T02:36:09;100404.30;;;-0.74;100.00
57900;BME280;60605;53.716;19.940;2022-11-25T02:41:17;100402.70;;;-0.74;100.00
57900;BME280;60605;53.716;19.940;2022-11-25T02:46:23;100403.73;;;-0.73;100.00
57900;BME280;60605;53.716;19.940;2022-11-25T02:51:29;100409.17;;;-0.73;100.00
57900;BME280;60605;53.716;19.940;2022-11-25T02:56:34;100414.09;;;-0.73;100.00
57900;BME280;60605;53.716;19.940;2022-11-25T03:01:38;100419.61;;;-0.72;100.00
57900;BME280;60605;53.716;19.940;2022-11-25T03:06:41;100425.73;;;-0.71;100.00
57900;BME280;60605;53.716;19.940;2022-11-25T03:11:45;100431.50;;;-0.71;100.00
57900;BME280;60605;53.716;19.940;2022-11-25T03:17:06;100440.45;;;-0.75;100.00
57900;BME280;60605;53.716;19.940;2022-11-25T03:22:10;100445.94;;;-0.79;100.00
57900;BME280;60605;53.716;19.940;2022-11-25T03:27:13;100446.56;;;-0.81;100.00
57900;BME280;60605;53.716;19.940;2022-11-25T03:32:17;100452.97;;;-0.86;100.00
57900;BME280;60605;53.716;19.940;2022-11-25T03:37:20;100454.89;;;-0.93;100.00
57900;BME280;60605;53.716;19.940;2022-11-25T03:42:24;100457.73;;;-1.01;100.00
57900;BME280;60605;53.716;19.940;2022-11-25T03:47:27;100461.85;;;-1.06;100.00
57900;BME280;60605;53.716;19.940;2022-11-25T03:52:30;100464.15;;;-1.10;100.00
57900;BME280;60605;53.716;19.940;2022-11-25T03:57:34;100466.20;;;-1.13;100.00
57900;BME280;60605;53.716;19.940;2022-11-25T04:02:37;100462.39;;;-1.17;100.00
57900;BME280;60605;53.716;19.940;2022-11-25T04:07:41;100463.02;;;-1.19;100.00
57900;BME280;60605;53.716;19.940;2022-11-25T04:12:44;100461.06;;;-1.18;100.00
57900;BME280;60605;53.716;19.940;2022-11-25T04:17:50;100458.65;;;-1.16;100.00
57900;BME280;60605;53.716;19.940;2022-11-25T04:22:53;100460.45;;;-1.13;100.00
57900;BME280;60605;53.716;19.940;2022-11-25T04:27:57;100459.65;;;-1.11;100.00
57900;BME280;60605;53.716;19.940;2022-11-25T04:33:01;100459.78;;;-1.10;100.00
57900;BME280;60605;53.716;19.940;2022-11-25T04:38:04;100465.67;;;-1.09;100.00
57900;BME280;60605;53.716;19.940;2022-11-25T04:43:07;100466.15;;;-1.08;100.00
57900;BME280;60605;53.716;19.940;2022-11-25T04:48:12;100470.63;;;-1.06;100.00
57900;BME280;60605;53.716;19.940;2022-11-25T04:53:15;100477.48;;;-1.03;100.00
57900;BME280;60605;53.716;19.940;2022-11-25T04:58:19;100481.39;;;-1.04;100.00
57900;BME280;60605;53.716;19.940;2022-11-25T05:03:42;100481.39;;;-1.04;100.00
57900;BME280;60605;53.716;19.940;2022-11-25T05:08:52;100480.77;;;-1.03;100.00
57900;BME280;60605;53.716;19.940;2022-11-25T05:13:55;100481.63;;;-1.02;100.00
57900;BME280;60605;53.716;19.940;2022-11-25T05:18:59;100483.35;;;-1.02;100.00
57900;BME280;60605;53.716;19.940;2022-11-25T05:24:02;100488.30;;;-1.02;100.00
57900;BME280;60605;53.716;19.940;2022-11-25T05:29:05;100487.11;;;-1.03;100.00
57900;BME280;60605;53.716;19.940;2022-11-25T05:34:09;100486.55;;;-1.02;100.00
57900;BME280;60605;53.716;19.940;2022-11-25T05:39:12;100494.27;;;-1.03;100.00
57900;BME280;60605;53.716;19.940;2022-11-25T05:44:15;100496.09;;;-1.04;100.00
57900;BME280;60605;53.716;19.940;2022-11-25T05:49:24;100500.83;;;-1.04;100.00
57900;BME280;60605;53.716;19.940;2022-11-25T05:54:27;100505.23;;;-1.01;100.00
57900;BME280;60605;53.716;19.940;2022-11-25T05:59:31;100508.09;;;-0.98;100.00
57900;BME280;60605;53.716;19.940;2022-11-25T06:04:34;100509.10;;;-0.98;100.00
57900;BME280;60605;53.716;19.940;2022-11-25T06:09:37;100508.77;;;-0.98;100.00
57900;BME280;60605;53.716;19.940;2022-11-25T06:14:41;100511.24;;;-0.99;100.00
57900;BME280;60605;53.716;19.940;2022-11-25T06:19:45;100518.75;;;-0.98;100.00
57900;BME280;60605;53.716;19.940;2022-11-25T06:24:48;100527.66;;;-0.98;100.00
57900;BME280;60605;53.716;19.940;2022-11-25T06:30:02;100534.66;;;-0.97;100.00
57900;BME280;60605;53.716;19.940;2022-11-25T06:35:08;100537.46;;;-0.97;100.00
57900;BME280;60605;53.716;19.940;2022-11-25T06:40:11;100540.44;;;-0.97;100.00
57900;BME280;60605;53.716;19.940;2022-11-25T06:45:15;100538.98;;;-0.96;100.00
57900;BME280;60605;53.716;19.940;2022-11-25T06:50:18;100543.48;;;-0.94;100.00
57900;BME280;60605;53.716;19.940;2022-11-25T06:55:21;100543.94;;;-0.93;100.00
57900;BME280;60605;53.716;19.940;2022-11-25T07:00:24;100549.43;;;-0.91;100.00
57900;BME280;60605;53.716;19.940;2022-11-25T07:05:28;100554.05;;;-0.89;100.00
57900;BME280;60605;53.716;19.940;2022-11-25T07:10:32;100554.55;;;-0.85;100.00
57900;BME280;60605;53.716;19.940;2022-11-25T07:15:36;100549.69;;;-0.78;100.00
57900;BME280;60605;53.716;19.940;2022-11-25T07:20:40;100549.98;;;-0.74;100.00
57900;BME280;60605;53.716;19.940;2022-11-25T07:25:44;100557.23;;;-0.68;100.00
57900;BME280;60605;53.716;19.940;2022-11-25T07:30:47;100563.52;;;-0.64;100.00
57900;BME280;60605;53.716;19.940;2022-11-25T07:36:13;100563.06;;;-0.61;100.00
57900;BME280;60605;53.716;19.940;2022-11-25T07:41:22;100568.67;;;-0.61;100.00
57900;BME280;60605;53.716;19.940;2022-11-25T07:46:29;100570.52;;;-0.64;100.00
57900;BME280;60605;53.716;19.940;2022-11-25T07:51:38;100567.98;;;-0.62;100.00
57900;BME280;60605;53.716;19.940;2022-11-25T07:56:42;100569.70;;;-0.58;100.00
57900;BME280;60605;53.716;19.940;2022-11-25T08:01:51;100572.39;;;-0.52;100.00
57900;BME280;60605;53.716;19.940;2022-11-25T08:06:55;100577.95;;;-0.44;100.00
57900;BME280;60605;53.716;19.940;2022-11-25T08:11:58;100581.39;;;-0.35;100.00
57900;BME280;60605;53.716;19.940;2022-11-25T08:17:01;100583.44;;;-0.28;100.00
57900;BME280;60605;53.716;19.940;2022-11-25T08:22:07;100586.73;;;-0.24;100.00
57900;BME280;60605;53.716;19.940;2022-11-25T08:27:10;100593.26;;;-0.21;100.00
57900;BME280;60605;53.716;19.940;2022-11-25T08:32:14;100598.89;;;-0.11;100.00
57900;BME280;60605;53.716;19.940;2022-11-25T08:37:17;100598.45;;;-0.02;100.00
57900;BME280;60605;53.716;19.940;2022-11-25T08:42:20;100598.59;;;0.06;100.00
57900;BME280;60605;53.716;19.940;2022-11-25T08:47:24;100600.96;;;0.14;100.00
57900;BME280;60605;53.716;19.940;2022-11-25T08:52:28;100605.36;;;0.17;100.00
57900;BME280;60605;53.716;19.940;2022-11-25T08:57:31;100607.34;;;0.23;100.00
57900;BME280;60605;53.716;19.940;2022-11-25T09:02:34;100613.20;;;0.28;100.00
57900;BME280;60605;53.716;19.940;2022-11-25T09:07:38;100614.33;;;0.33;100.00
57900;BME280;60605;53.716;19.940;2022-11-25T09:12:41;100616.05;;;0.34;100.00
57900;BME280;60605;53.716;19.940;2022-11-25T09:17:44;100617.20;;;0.36;100.00
57900;BME280;60605;53.716;19.940;2022-11-25T09:22:48;100611.82;;;0.41;100.00
57900;BME280;60605;53.716;19.940;2022-11-25T09:27:51;100609.13;;;0.43;100.00
57900;BME280;60605;53.716;19.940;2022-11-25T09:32:55;100607.36;;;0.39;100.00
57900;BME280;60605;53.716;19.940;2022-11-25T09:37:58;100606.34;;;0.39;100.00
57900;BME280;60605;53.716;19.940;2022-11-25T10:04:17;100622.36;;;0.64;100.00
57900;BME280;60605;53.716;19.940;2022-11-25T10:09:25;100625.50;;;0.64;100.00
57900;BME280;60605;53.716;19.940;2022-11-25T10:14:49;100632.20;;;0.64;100.00
57900;BME280;60605;53.716;19.940;2022-11-25T10:20:11;100633.30;;;0.63;100.00
57900;BME280;60605;53.716;19.940;2022-11-25T10:25:18;100635.23;;;0.64;100.00
57900;BME280;60605;53.716;19.940;2022-11-25T10:30:26;100641.52;;;0.60;100.00
57900;BME280;60605;53.716;19.940;2022-11-25T10:35:33;100645.67;;;0.62;100.00
57900;BME280;60605;53.716;19.940;2022-11-25T10:40:37;100649.17;;;0.69;100.00
57900;BME280;60605;53.716;19.940;2022-11-25T10:56:21;100646.85;;;0.73;100.00
57900;BME280;60605;53.716;19.940;2022-11-25T11:01:24;100642.67;;;0.72;100.00
57900;BME280;60605;53.716;19.940;2022-11-25T11:06:39;100645.35;;;0.71;100.00
57900;BME280;60605;53.716;19.940;2022-11-25T11:11:47;100646.52;;;0.72;100.00
57900;BME280;60605;53.716;19.940;2022-11-25T11:16:56;100645.81;;;0.76;100.00
57900;BME280;60605;53.716;19.940;2022-11-25T11:22:15;100645.71;;;0.81;100.00
57900;BME280;60605;53.716;19.940;2022-11-25T11:27:23;100641.67;;;0.84;100.00
57900;BME280;60605;53.716;19.940;2022-11-25T11:32:27;100642.16;;;0.85;100.00
57900;BME280;60605;53.716;19.940;2022-11-25T11:37:52;100652.18;;;0.85;100.00
57900;BME280;60605;53.716;19.940;2022-11-25T11:43:05;100649.49;;;0.86;100.00
57900;BME280;60605;53.716;19.940;2022-11-25T11:48:27;100646.80;;;0.87;100.00
57900;BME280;60605;53.716;19.940;2022-11-25T11:53:47;100651.27;;;0.88;100.00
57900;BME280;60605;53.716;19.940;2022-11-25T11:59:25;100654.36;;;0.87;100.00
57900;BME280;60605;53.716;19.940;2022-11-25T12:09:57;100658.47;;;0.82;100.00
57900;BME280;60605;53.716;19.940;2022-11-25T12:15:14;100661.80;;;0.83;100.00
57900;BME280;60605;53.716;19.940;2022-11-25T12:20:39;100661.95;;;0.83;100.00
57900;BME280;60605;53.716;19.940;2022-11-25T12:25:48;100665.66;;;0.82;100.00
57900;BME280;60605;53.716;19.940;2022-11-25T12:31:28;100667.67;;;0.84;100.00
57900;BME280;60605;53.716;19.940;2022-11-25T12:36:36;100666.89;;;0.89;100.00
57900;BME280;60605;53.716;19.940;2022-11-25T12:41:47;100669.75;;;0.94;100.00
57900;BME280;60605;53.716;19.940;2022-11-25T12:46:54;100672.30;;;0.96;100.00
57900;BME280;60605;53.716;19.940;2022-11-25T13:14:00;100679.85;;;0.80;100.00
57900;BME280;60605;53.716;19.940;2022-11-25T13:19:10;100687.73;;;0.74;99.96
57900;BME280;60605;53.716;19.940;2022-11-25T13:24:29;100694.07;;;0.70;100.00
57900;BME280;60605;53.716;19.940;2022-11-25T13:34:42;100700.59;;;0.70;100.00
57900;BME280;60605;53.716;19.940;2022-11-25T13:39:45;100702.56;;;0.69;100.00
57900;BME280;60605;53.716;19.940;2022-11-25T13:44:57;100707.84;;;0.66;100.00
57900;BME280;60605;53.716;19.940;2022-11-25T13:50:05;100711.88;;;0.60;100.00
57900;BME280;60605;53.716;19.940;2022-11-25T13:55:27;100712.70;;;0.57;100.00
57900;BME280;60605;53.716;19.940;2022-11-25T14:11:39;100719.33;;;0.51;100.00
57900;BME280;60605;53.716;19.940;2022-11-25T14:27:37;100720.63;;;0.40;100.00
57900;BME280;60605;53.716;19.940;2022-11-25T14:33:01;100725.44;;;0.35;100.00
57900;BME280;60605;53.716;19.940;2022-11-25T14:38:12;100731.94;;;0.32;100.00
57900;BME280;60605;53.716;19.940;2022-11-25T14:43:23;100740.70;;;0.29;100.00
57900;BME280;60605;53.716;19.940;2022-11-25T14:48:27;100743.28;;;0.26;100.00
57900;BME280;60605;53.716;19.940;2022-11-25T14:53:30;100744.54;;;0.26;100.00
57900;BME280;60605;53.716;19.940;2022-11-25T14:58:48;100744.89;;;0.26;100.00
57900;BME280;60605;53.716;19.940;2022-11-25T15:09:29;100754.00;;;0.23;100.00
57900;BME280;60605;53.716;19.940;2022-11-25T15:14:56;100761.73;;;0.23;100.00
57900;BME280;60605;53.716;19.940;2022-11-25T15:20:02;100762.86;;;0.25;100.00
57900;BME280;60605;53.716;19.940;2022-11-25T15:25:13;100766.66;;;0.26;100.00
57900;BME280;60605;53.716;19.940;2022-11-25T15:30:26;100767.91;;;0.25;100.00
57900;BME280;60605;53.716;19.940;2022-11-25T15:35:32;100759.94;;;0.23;100.00
57900;BME280;60605;53.716;19.940;2022-11-25T15:40:39;100756.80;;;0.23;100.00
57900;BME280;60605;53.716;19.940;2022-11-25T15:45:47;100757.11;;;0.24;100.00
57900;BME280;60605;53.716;19.940;2022-11-25T15:51:02;100759.98;;;0.23;100.00
57900;BME280;60605;53.716;19.940;2022-11-25T15:56:10;100765.59;;;0.23;100.00
57900;BME280;60605;53.716;19.940;2022-11-25T16:06:23;100778.84;;;0.25;100.00
57900;BME280;60605;53.716;19.940;2022-11-25T16:11:28;100784.52;;;0.27;100.00
57900;BME280;60605;53.716;19.940;2022-11-25T16:16:37;100786.76;;;0.28;100.00
57900;BME280;60605;53.716;19.940;2022-11-25T16:21:45;100782.84;;;0.29;100.00
57900;BME280;60605;53.716;19.940;2022-11-25T16:26:56;100783.02;;;0.29;100.00
57900;BME280;60605;53.716;19.940;2022-11-25T16:32:13;100781.78;;;0.29;100.00
57900;BME280;60605;53.716;19.940;2022-11-25T16:37:17;100783.23;;;0.28;100.00
57900;BME280;60605;53.716;19.940;2022-11-25T16:42:21;100778.77;;;0.26;100.00
57900;BME280;60605;53.716;19.940;2022-11-25T16:47:24;100782.52;;;0.25;100.00
57900;BME280;60605;53.716;19.940;2022-11-25T16:52:28;100780.83;;;0.24;100.00
57900;BME280;60605;53.716;19.940;2022-11-25T16:57:33;100780.97;;;0.21;100.00
57900;BME280;60605;53.716;19.940;2022-11-25T17:02:37;100777.56;;;0.19;100.00
57900;BME280;60605;53.716;19.940;2022-11-25T17:07:41;100779.42;;;0.17;100.00
57900;BME280;60605;53.716;19.940;2022-11-25T17:12:46;100780.54;;;0.15;100.00
57900;BME280;60605;53.716;19.940;2022-11-25T17:17:50;100783.95;;;0.14;100.00
57900;BME280;60605;53.716;19.940;2022-11-25T17:22:54;100788.08;;;0.12;100.00
57900;BME280;60605;53.716;19.940;2022-11-25T17:27:57;100794.58;;;0.12;100.00
57900;BME280;60605;53.716;19.940;2022-11-25T17:33:05;100799.49;;;0.12;100.00
57900;BME280;60605;53.716;19.940;2022-11-25T17:38:26;100803.36;;;0.12;100.00
57900;BME280;60605;53.716;19.940;2022-11-25T17:43:37;100804.38;;;0.13;100.00
57900;BME280;60605;53.716;19.940;2022-11-25T17:48:41;100812.61;;;0.13;100.00
57900;BME280;60605;53.716;19.940;2022-11-25T17:53:45;100818.27;;;0.12;100.00
57900;BME280;60605;53.716;19.940;2022-11-25T17:58:51;100821.82;;;0.11;100.00
57900;BME280;60605;53.716;19.940;2022-11-25T18:03:55;100827.54;;;0.10;100.00
57900;BME280;60605;53.716;19.940;2022-11-25T18:08:58;100827.00;;;0.10;100.00
57900;BME280;60605;53.716;19.940;2022-11-25T18:14:02;100825.31;;;0.08;100.00
57900;BME280;60605;53.716;19.940;2022-11-25T18:19:10;100823.92;;;0.08;100.00
57900;BME280;60605;53.716;19.940;2022-11-25T18:24:14;100824.77;;;0.09;100.00
57900;BME280;60605;53.716;19.940;2022-11-25T18:29:24;100828.42;;;0.10;100.00
57900;BME280;60605;53.716;19.940;2022-11-25T18:34:28;100833.06;;;0.11;100.00
57900;BME280;60605;53.716;19.940;2022-11-25T18:39:32;100840.88;;;0.13;100.00
57900;BME280;60605;53.716;19.940;2022-11-25T18:44:36;100847.33;;;0.14;100.00
57900;BME280;60605;53.716;19.940;2022-11-25T18:49:44;100851.02;;;0.14;100.00
57900;BME280;60605;53.716;19.940;2022-11-25T18:54:54;100849.27;;;0.14;100.00
57900;BME280;60605;53.716;19.940;2022-11-25T18:59:58;100845.95;;;0.14;100.00
57900;BME280;60605;53.716;19.940;2022-11-25T19:05:24;100844.91;;;0.13;100.00
57900;BME280;60605;53.716;19.940;2022-11-25T19:10:30;100851.55;;;0.14;100.00
57900;BME280;60605;53.716;19.940;2022-11-25T19:15:37;100853.98;;;0.14;100.00
57900;BME280;60605;53.716;19.940;2022-11-25T19:20:41;100855.31;;;0.16;100.00
57900;BME280;60605;53.716;19.940;2022-11-25T19:25:44;100857.52;;;0.18;100.00
57900;BME280;60605;53.716;19.940;2022-11-25T19:30:55;100864.05;;;0.17;100.00
57900;BME280;60605;53.716;19.940;2022-11-25T19:36:00;100866.02;;;0.16;100.00
57900;BME280;60605;53.716;19.940;2022-11-25T19:41:04;100870.20;;;0.17;100.00
57900;BME280;60605;53.716;19.940;2022-11-25T19:46:24;100873.74;;;0.16;100.00
57900;BME280;60605;53.716;19.940;2022-11-25T19:51:38;100879.52;;;0.17;100.00
57900;BME280;60605;53.716;19.940;2022-11-25T19:56:42;100883.66;;;0.18;100.00
57900;BME280;60605;53.716;19.940;2022-11-25T20:01:46;100885.35;;;0.19;100.00
57900;BME280;60605;53.716;19.940;2022-11-25T20:06:51;100885.70;;;0.20;100.00
57900;BME280;60605;53.716;19.940;2022-11-25T20:11:54;100888.44;;;0.21;100.00
57900;BME280;60605;53.716;19.940;2022-11-25T20:17:00;100898.86;;;0.23;100.00
57900;BME280;60605;53.716;19.940;2022-11-25T20:22:04;100906.91;;;0.24;100.00
57900;BME280;60605;53.716;19.940;2022-11-25T20:27:10;100917.88;;;0.23;100.00
57900;BME280;60605;53.716;19.940;2022-11-25T20:37:28;100930.24;;;0.25;100.00
57900;BME280;60605;53.716;19.940;2022-11-25T20:42:31;100932.54;;;0.24;100.00
57900;BME280;60605;53.716;19.940;2022-11-25T20:47:35;100936.37;;;0.25;100.00
57900;BME280;60605;53.716;19.940;2022-11-25T20:52:41;100936.48;;;0.26;100.00
57900;BME280;60605;53.716;19.940;2022-11-25T20:57:46;100936.98;;;0.27;100.00
57900;BME280;60605;53.716;19.940;2022-11-25T21:02:50;100940.28;;;0.28;100.00
57900;BME280;60605;53.716;19.940;2022-11-25T21:07:54;100945.00;;;0.28;100.00
57900;BME280;60605;53.716;19.940;2022-11-25T21:12:57;100944.98;;;0.29;100.00
57900;BME280;60605;53.716;19.940;2022-11-25T21:18:00;100946.48;;;0.30;100.00
57900;BME280;60605;53.716;19.940;2022-11-25T21:23:05;100951.10;;;0.29;100.00
57900;BME280;60605;53.716;19.940;2022-11-25T21:28:21;100950.27;;;0.29;100.00
57900;BME280;60605;53.716;19.940;2022-11-25T21:33:26;100953.11;;;0.28;100.00
57900;BME280;60605;53.716;19.940;2022-11-25T21:38:29;100955.02;;;0.29;100.00
57900;BME280;60605;53.716;19.940;2022-11-25T21:43:39;100960.48;;;0.28;100.00
57900;BME280;60605;53.716;19.940;2022-11-25T21:48:43;100966.52;;;0.26;100.00
57900;BME280;60605;53.716;19.940;2022-11-25T21:53:47;100967.79;;;0.26;100.00
57900;BME280;60605;53.716;19.940;2022-11-25T21:58:53;100971.96;;;0.27;100.00
57900;BME280;60605;53.716;19.940;2022-11-25T22:03:57;100967.73;;;0.27;100.00
57900;BME280;60605;53.716;19.940;2022-11-25T22:09:01;100972.62;;;0.27;100.00
57900;BME280;60605;53.716;19.940;2022-11-25T22:14:10;100974.86;;;0.28;100.00
57900;BME280;60605;53.716;19.940;2022-11-25T22:19:18;100976.89;;;0.30;100.00
57900;BME280;60605;53.716;19.940;2022-11-25T22:24:22;100976.39;;;0.30;100.00
57900;BME280;60605;53.716;19.940;2022-11-25T22:29:32;100980.06;;;0.29;100.00
57900;BME280;60605;53.716;19.940;2022-11-25T22:34:36;100985.56;;;0.29;100.00
57900;BME280;60605;53.716;19.940;2022-11-25T22:39:40;100990.02;;;0.27;100.00
57900;BME280;60605;53.716;19.940;2022-11-25T22:44:43;100992.90;;;0.26;100.00
57900;BME280;60605;53.716;19.940;2022-11-25T22:49:48;100997.33;;;0.25;100.00
57900;BME280;60605;53.716;19.940;2022-11-25T22:54:52;100993.64;;;0.25;100.00
57900;BME280;60605;53.716;19.940;2022-11-25T22:59:55;100997.12;;;0.25;100.00
57900;BME280;60605;53.716;19.940;2022-11-25T23:04:58;100999.41;;;0.25;100.00
57900;BME280;60605;53.716;19.940;2022-11-25T23:10:04;101003.05;;;0.27;100.00
57900;BME280;60605;53.716;19.940;2022-11-25T23:15:16;101002.46;;;0.28;100.00
57900;BME280;60605;53.716;19.940;2022-11-25T23:25:25;101001.42;;;0.27;100.00
57900;BME280;60605;53.716;19.940;2022-11-25T23:30:28;101007.06;;;0.27;100.00
57900;BME280;60605;53.716;19.940;2022-11-25T23:35:34;101006.55;;;0.27;100.00
57900;BME280;60605;53.716;19.940;2022-11-25T23:40:39;101009.39;;;0.26;100.00
57900;BME280;60605;53.716;19.940;2022-11-25T23:45:49;101010.31;;;0.25;100.00
57900;BME280;60605;53.716;19.940;2022-11-25T23:50:54;101016.88;;;0.24;100.00
57900;BME280;60605;53.716;19.940;2022-11-25T23:55:59;101024.38;;;0.25;100.00
